Time;durP1;ratioP1;P1;durP2;ratioP2;P2;SDS_P1;SDS_P2;PMS_P1;PMS_P2;Temp;Humidity;BMP_temperature;BMP_pressure;BME280_temperature;BME280_humidity;BME280_pressure;Samples;Min_cycle;Max_cycle;Signal;HPM_P1;HPM_P2
2023/05/12 00:01:52;;;;;;;8.50;3.40;;;10.60;99.90;;;;;;4983835;28;20183;-85
2023/05/12 00:04:17;;;;;;;5.73;3.30;;;10.70;99.90;;;;;;5000609;28;20183;-85
2023/05/12 00:06:43;;;;;;;5.57;3.47;;;10.70;99.90;;;;;;4999294;28;20243;-85
2023/05/12 00:09:08;;;;;;;5.07;3.30;;;10.80;99.90;;;;;;5000519;28;20179;-85
2023/05/12 00:11:36;;;;;;;5.80;3.63;;;10.70;99.90;;;;;;4998916;28;20592;-86
2023/05/12 00:14:02;;;;;;;7.45;4.10;;;10.70;99.90;;;;;;4991244;28;20234;-86
2023/05/12 00:16:27;;;;;;;6.93;4.20;;;10.80;99.90;;;;;;4995692;28;20514;-85
2023/05/12 00:18:53;;;;;;;4.43;3.50;;;10.70;99.90;;;;;;4988940;28;20226;-87
2023/05/12 00:21:18;;;;;;;9.60;5.23;;;10.70;99.90;;;;;;4999601;28;20226;-86
2023/05/12 00:23:44;;;;;;;7.67;4.50;;;10.60;99.90;;;;;;5000636;28;20273;-86
2023/05/12 00:26:09;;;;;;;6.73;3.80;;;10.60;99.90;;;;;;4999604;28;20171;-85
2023/05/12 00:28:35;;;;;;;5.23;3.73;;;10.60;99.90;;;;;;4998479;28;20629;-85
2023/05/12 00:31:04;;;;;;;7.50;4.20;;;10.70;99.90;;;;;;4997287;28;20172;-86
2023/05/12 00:33:30;;;;;;;6.55;3.90;;;10.60;99.90;;;;;;4994708;28;20241;-86
2023/05/12 00:35:56;;;;;;;5.17;4.10;;;10.60;99.90;;;;;;4995693;28;20627;-87
2023/05/12 00:38:21;;;;;;;7.53;4.63;;;10.60;99.90;;;;;;4993653;28;20302;-88
2023/05/12 00:40:47;;;;;;;4.70;3.83;;;10.70;99.90;;;;;;4991530;28;20175;-87
2023/05/12 00:43:12;;;;;;;7.50;3.50;;;10.70;99.90;;;;;;4998088;28;20259;-87
2023/05/12 00:45:38;;;;;;;8.03;3.80;;;10.70;99.90;;;;;;4993603;28;20175;-87
2023/05/12 00:48:05;;;;;;;5.60;3.43;;;10.80;99.90;;;;;;4982222;28;20175;-87
2023/05/12 00:50:31;;;;;;;6.00;2.72;;;10.80;99.90;;;;;;4982164;28;20633;-87
2023/05/12 00:52:59;;;;;;;6.20;4.30;;;10.70;99.90;;;;;;4982871;28;20199;-87
2023/05/12 00:55:25;;;;;;;5.68;3.97;;;10.70;99.90;;;;;;4992273;28;20175;-87
2023/05/12 00:57:51;;;;;;;7.85;4.43;;;10.70;99.90;;;;;;4997001;28;20191;-87
2023/05/12 01:00:17;;;;;;;8.17;4.37;;;10.70;99.90;;;;;;4995356;28;20182;-86
2023/05/12 01:02:43;;;;;;;9.30;4.37;;;10.80;99.90;;;;;;4992925;28;20213;-87
2023/05/12 01:05:10;;;;;;;6.45;4.15;;;10.70;99.90;;;;;;4992186;28;20206;-86
2023/05/12 01:07:36;;;;;;;7.13;3.90;;;10.70;99.90;;;;;;4989459;28;20242;-86
2023/05/12 01:10:02;;;;;;;6.72;4.13;;;10.70;99.90;;;;;;4989857;28;20172;-86
2023/05/12 01:12:27;;;;;;;6.80;3.33;;;10.70;99.90;;;;;;4993803;28;20249;-86
2023/05/12 01:14:55;;;;;;;10.87;4.17;;;10.70;99.90;;;;;;4985090;28;20831;-86
2023/05/12 01:17:28;;;;;;;8.82;5.03;;;10.60;99.90;;;;;;4995080;28;20183;-87
2023/05/12 01:19:56;;;;;;;9.30;4.90;;;10.50;99.90;;;;;;4991530;28;20171;-87
2023/05/12 01:22:22;;;;;;;9.43;5.60;;;10.50;99.90;;;;;;4993609;28;20175;-86
2023/05/12 01:24:58;;;;;;;10.57;5.07;;;10.50;99.90;;;;;;4993146;28;20186;-87
2023/05/12 01:27:26;;;;;;;9.65;4.93;;;10.60;99.90;;;;;;4988623;28;20222;-86
2023/05/12 01:29:53;;;;;;;9.45;5.45;;;10.70;99.90;;;;;;4992060;28;20167;-87
2023/05/12 01:32:20;;;;;;;13.50;6.72;;;10.70;99.90;;;;;;4978086;28;20247;-86
2023/05/12 01:34:46;;;;;;;8.57;4.32;;;;;;;;;;4985333;28;20206;-86
2023/05/12 01:37:12;;;;;;;7.73;5.20;;;;;;;;;;4994128;28;20171;-87
2023/05/12 01:39:38;;;;;;;8.23;4.73;;;10.80;99.90;;;;;;4992682;28;20531;-87
2023/05/12 01:42:04;;;;;;;9.73;6.00;;;10.80;99.90;;;;;;4984304;28;20825;-86
2023/05/12 01:44:29;;;;;;;7.53;4.85;;;10.80;99.90;;;;;;5003145;28;20191;-86
2023/05/12 01:46:55;;;;;;;11.80;5.67;;;10.80;99.90;;;;;;4991845;28;20182;-85
2023/05/12 01:49:21;;;;;;;11.93;5.80;;;10.80;99.90;;;;;;4994870;28;20186;-85
2023/05/12 01:51:47;;;;;;;10.17;5.20;;;;;;;;;;4996186;28;20198;-85
2023/05/12 01:54:12;;;;;;;7.73;4.80;;;10.70;99.90;;;;;;4982932;28;20445;-86
2023/05/12 01:56:38;;;;;;;10.90;5.70;;;10.50;99.90;;;;;;4990404;28;20522;-86
2023/05/12 01:59:04;;;;;;;5.57;3.90;;;;;;;;;;4987244;28;20221;-86
2023/05/12 02:01:31;;;;;;;9.80;5.57;;;10.60;99.90;;;;;;4986827;28;20215;-86
2023/05/12 02:03:57;;;;;;;9.35;4.53;;;;;;;;;;4987322;28;20472;-86
2023/05/12 02:06:22;;;;;;;13.18;5.43;;;10.70;99.90;;;;;;4990844;28;20531;-86
2023/05/12 02:08:48;;;;;;;9.67;5.63;;;10.60;99.90;;;;;;4996066;28;20183;-85
2023/05/12 02:11:14;;;;;;;9.20;5.00;;;10.50;99.90;;;;;;4990752;28;20622;-85
2023/05/12 02:13:41;;;;;;;10.00;6.15;;;10.40;99.90;;;;;;4985735;28;20242;-84
2023/05/12 02:16:06;;;;;;;11.63;5.40;;;10.30;99.90;;;;;;4987067;28;20229;-85
2023/05/12 02:18:32;;;;;;;15.40;6.53;;;10.30;99.90;;;;;;4982182;28;20601;-85
2023/05/12 02:20:58;;;;;;;10.70;7.20;;;;;;;;;;4992994;28;20660;-85
2023/05/12 02:23:24;;;;;;;13.75;6.07;;;;;;;;;;4996264;28;20446;-87
2023/05/12 02:25:50;;;;;;;14.30;6.70;;;10.50;99.90;;;;;;4990185;28;20182;-86
2023/05/12 02:28:15;;;;;;;9.90;6.53;;;10.50;99.90;;;;;;4996342;28;20421;-87
2023/05/12 02:30:47;;;;;;;11.67;5.90;;;10.60;99.90;;;;;;4997230;28;20179;-86
2023/05/12 02:33:13;;;;;;;10.00;5.65;;;;;;;;;;4997277;28;20210;-84
2023/05/12 02:35:38;;;;;;;12.10;5.93;;;10.70;99.90;;;;;;4980148;28;20180;-85
2023/05/12 02:38:04;;;;;;;14.03;7.70;;;;;;;;;;4985362;28;20466;-85
2023/05/12 02:40:30;;;;;;;10.75;6.10;;;10.80;99.90;;;;;;4995169;28;20167;-84
2023/05/12 02:42:55;;;;;;;8.53;5.87;;;10.70;99.90;;;;;;4997835;28;20233;-83
2023/05/12 02:45:21;;;;;;;13.40;6.47;;;10.70;99.90;;;;;;4996233;28;20185;-85
2023/05/12 02:47:47;;;;;;;17.83;6.50;;;10.70;99.90;;;;;;4995978;28;20177;-84
2023/05/12 02:50:13;;;;;;;9.57;5.63;;;10.70;99.90;;;;;;4995229;28;20185;-84
2023/05/12 02:52:39;;;;;;;12.73;6.17;;;10.60;99.90;;;;;;4993690;28;20450;-84
2023/05/12 02:55:05;;;;;;;11.77;6.00;;;10.70;99.90;;;;;;4989538;28;20175;-84
2023/05/12 02:57:32;;;;;;;27.33;6.70;;;10.60;99.90;;;;;;4996910;28;20699;-84
2023/05/12 03:00:05;;;;;;;15.40;6.07;;;10.40;99.90;;;;;;4993698;28;20519;-85
2023/05/12 03:02:31;;;;;;;16.27;5.93;;;10.30;99.90;;;;;;5001134;28;20195;-85
2023/05/12 03:04:57;;;;;;;7.15;4.47;;;10.30;99.90;;;;;;4994156;28;20182;-85
2023/05/12 03:07:22;;;;;;;12.50;6.93;;;10.40;99.90;;;;;;4996370;28;20191;-84
2023/05/12 03:09:48;;;;;;;10.30;5.50;;;10.50;99.90;;;;;;4989801;28;20194;-84
2023/05/12 03:12:14;;;;;;;11.63;5.40;;;10.60;99.90;;;;;;4996928;28;20238;-85
2023/05/12 03:14:41;;;;;;;12.90;5.53;;;10.60;99.90;;;;;;4996643;28;20564;-84
2023/05/12 03:17:06;;;;;;;11.70;5.10;;;;;;;;;;4990852;28;20175;-85
2023/05/12 03:19:32;;;;;;;12.73;6.30;;;10.70;99.90;;;;;;4989667;28;20685;-84
2023/05/12 03:21:58;;;;;;;11.47;5.93;;;;;;;;;;4980755;28;20446;-86
2023/05/12 03:24:24;;;;;;;16.50;6.73;;;;;;;;;;4985632;28;20196;-86
2023/05/12 03:26:49;;;;;;;10.48;5.20;;;10.90;99.90;;;;;;4986703;28;20509;-85
2023/05/12 03:29:15;;;;;;;8.50;5.77;;;10.70;99.90;;;;;;4988387;28;20235;-84
2023/05/12 03:31:41;;;;;;;9.77;5.63;;;;;;;;;;4995130;28;20186;-84
2023/05/12 03:34:06;;;;;;;12.40;6.10;;;10.60;99.90;;;;;;4991271;28;20198;-84
2023/05/12 03:36:32;;;;;;;12.33;5.70;;;;;;;;;;4992676;28;20465;-86
2023/05/12 03:38:58;;;;;;;10.80;5.60;;;10.50;99.90;;;;;;5012042;28;20213;-86
2023/05/12 03:41:23;;;;;;;10.80;5.97;;;10.50;99.90;;;;;;4997605;28;20919;-85
2023/05/12 03:43:49;;;;;;;8.93;4.90;;;;;;;;;;4990408;28;20231;-83
2023/05/12 03:46:15;;;;;;;10.80;5.70;;;10.70;99.90;;;;;;4993955;28;20720;-84
2023/05/12 03:48:41;;;;;;;8.27;3.97;;;;;;;;;;4997035;28;20589;-84
2023/05/12 03:51:06;;;;;;;10.37;5.60;;;10.80;99.90;;;;;;4999366;28;20211;-83
2023/05/12 03:53:32;;;;;;;8.93;3.97;;;10.70;99.90;;;;;;4989015;28;20453;-83
2023/05/12 03:56:03;;;;;;;7.70;5.43;;;10.70;99.90;;;;;;4990673;28;20583;-82
2023/05/12 03:58:29;;;;;;;8.20;4.68;;;10.80;99.90;;;;;;4990588;28;20281;-85
2023/05/12 04:00:55;;;;;;;9.70;5.00;;;10.90;99.90;;;;;;4996485;28;20191;-85
2023/05/12 04:03:21;;;;;;;11.18;4.95;;;;;;;;;;4990580;28;20719;-84
2023/05/12 04:05:47;;;;;;;9.33;6.53;;;11.10;99.90;;;;;;4995033;28;20244;-84
2023/05/12 04:08:13;;;;;;;9.27;5.00;;;;;;;;;;4986278;28;20485;-84
2023/05/12 04:10:39;;;;;;;11.57;6.00;;;11.10;99.90;;;;;;4980876;28;20636;-84
2023/05/12 04:13:06;;;;;;;21.67;6.18;;;11.00;99.90;;;;;;4994131;28;20483;-84
2023/05/12 04:15:35;;;;;;;13.95;7.00;;;11.00;99.90;;;;;;4985845;28;20182;-84
2023/05/12 04:18:02;;;;;;;16.02;7.47;;;11.00;99.90;;;;;;4991568;28;20558;-84
2023/05/12 04:20:28;;;;;;;17.67;7.05;;;;;;;;;;5003916;28;20186;-84
2023/05/12 04:22:53;;;;;;;17.47;6.60;;;11.00;99.90;;;;;;4991877;28;20210;-85
2023/05/12 04:25:19;;;;;;;13.90;6.47;;;11.00;99.90;;;;;;4993240;28;20438;-85
2023/05/12 04:27:45;;;;;;;11.33;5.43;;;;;;;;;;4991692;28;20675;-85
2023/05/12 04:30:10;;;;;;;10.40;6.23;;;10.80;99.90;;;;;;4995265;28;20179;-88
2023/05/12 04:32:36;;;;;;;14.83;6.80;;;;;;;;;;4997709;28;20466;-87
2023/05/12 04:35:02;;;;;;;13.57;6.37;;;;;;;;;;4991404;28;20283;-83
2023/05/12 04:37:28;;;;;;;15.00;6.13;;;;;;;;;;4988936;28;20486;-84
2023/05/12 04:39:54;;;;;;;15.70;7.67;;;10.90;99.90;;;;;;4987931;28;20490;-84
2023/05/12 04:42:20;;;;;;;11.00;6.33;;;;;;;;;;4989514;28;20438;-85
2023/05/12 04:44:46;;;;;;;15.70;7.73;;;;;;;;;;4997827;28;20183;-85
2023/05/12 04:47:12;;;;;;;17.30;7.53;;;;;;;;;;4980322;28;20435;-85
2023/05/12 04:49:37;;;;;;;16.23;8.10;;;11.10;99.90;;;;;;4985654;28;20434;-85
2023/05/12 04:52:04;;;;;;;17.23;7.73;;;11.20;99.90;;;;;;4996168;28;20195;-85
2023/05/12 04:54:31;;;;;;;14.55;7.40;;;;;;;;;;4991836;28;20199;-84
2023/05/12 04:56:57;;;;;;;15.10;9.43;;;;;;;;;;4983744;28;20175;-82
2023/05/12 04:59:22;;;;;;;14.23;7.10;;;11.40;99.90;;;;;;4984088;28;20203;-82
2023/05/12 05:01:48;;;;;;;15.73;8.83;;;11.50;99.90;;;;;;4976505;28;20434;-83
2023/05/12 05:04:13;;;;;;;18.70;9.80;;;11.70;99.90;;;;;;4985322;28;20279;-82
2023/05/12 05:06:39;;;;;;;13.93;6.90;;;11.80;99.90;;;;;;4982141;28;20370;-83
2023/05/12 05:09:04;;;;;;;15.87;7.03;;;11.80;99.90;;;;;;4982172;28;20226;-82
2023/05/12 05:11:30;;;;;;;20.53;10.20;;;11.80;99.90;;;;;;4980847;28;20270;-82
2023/05/12 05:13:55;;;;;;;24.43;8.87;;;11.80;99.90;;;;;;4985639;28;20225;-82
2023/05/12 05:16:21;;;;;;;18.33;8.30;;;11.80;99.90;;;;;;4988828;28;20656;-82
2023/05/12 05:18:47;;;;;;;28.73;10.90;;;11.80;99.90;;;;;;4978884;28;20243;-82
2023/05/12 05:21:13;;;;;;;25.03;11.50;;;11.80;99.90;;;;;;4983437;28;20183;-82
2023/05/12 05:23:39;;;;;;;24.47;9.13;;;12.00;99.90;;;;;;4969957;28;20195;-80
2023/05/12 05:26:05;;;;;;;20.03;10.17;;;12.30;99.90;;;;;;4989346;28;20569;-81
2023/05/12 05:28:31;;;;;;;21.07;9.23;;;12.50;99.90;;;;;;4977165;28;20522;-81
2023/05/12 05:30:56;;;;;;;22.00;10.83;;;12.70;99.90;;;;;;4988526;28;20552;-82
2023/05/12 05:33:22;;;;;;;20.50;10.40;;;12.80;99.90;;;;;;4979799;28;20214;-83
2023/05/12 05:35:48;;;;;;;20.83;9.40;;;12.90;99.90;;;;;;4978813;28;20187;-81
2023/05/12 05:38:13;;;;;;;14.70;8.00;;;12.90;99.90;;;;;;4987355;28;20194;-82
2023/05/12 05:40:39;;;;;;;17.27;9.03;;;12.80;99.90;;;;;;4979643;28;20242;-82
2023/05/12 05:43:05;;;;;;;20.80;11.57;;;13.00;99.90;;;;;;4974545;28;20706;-83
2023/05/12 05:45:31;;;;;;;17.30;9.20;;;13.00;99.90;;;;;;4976273;28;20174;-82
2023/05/12 05:47:56;;;;;;;19.90;8.40;;;13.00;99.90;;;;;;4977483;28;20439;-81
2023/05/12 05:50:22;;;;;;;20.10;9.07;;;13.10;99.90;;;;;;4979520;28;20450;-82
2023/05/12 05:52:48;;;;;;;18.63;9.50;;;13.30;99.90;;;;;;4979274;28;20253;-82
2023/05/12 05:55:13;;;;;;;20.27;10.00;;;13.30;99.90;;;;;;4973904;28;20187;-83
2023/05/12 05:57:39;;;;;;;18.03;9.60;;;;;;;;;;4982341;28;20187;-82
2023/05/12 06:00:08;;;;;;;18.57;9.27;;;13.50;99.90;;;;;;4981680;28;20183;-83
2023/05/12 06:02:34;;;;;;;16.83;10.10;;;;;;;;;;4986397;28;20998;-84
2023/05/12 06:05:00;;;;;;;20.03;10.50;;;13.70;99.90;;;;;;4977431;28;20485;-83
2023/05/12 06:07:26;;;;;;;15.30;8.50;;;;;;;;;;4977944;28;20439;-84
2023/05/12 06:09:54;;;;;;;20.53;9.60;;;13.90;99.90;;;;;;4975524;28;20190;-84
2023/05/12 06:12:20;;;;;;;17.50;9.70;;;;;;;;;;4978389;28;20767;-83
2023/05/12 06:14:46;;;;;;;17.33;9.90;;;;;;;;;;4990804;28;20525;-83
2023/05/12 06:17:12;;;;;;;18.27;8.60;;;;;;;;;;4980357;28;20435;-84
2023/05/12 06:19:38;;;;;;;13.67;8.03;;;14.40;99.90;;;;;;4974020;28;21006;-83
2023/05/12 06:22:04;;;;;;;13.87;8.60;;;;;;;;;;4974152;28;20446;-82
2023/05/12 06:24:30;;;;;;;12.97;7.90;;;;;;;;;;4979125;28;20217;-83
2023/05/12 06:26:56;;;;;;;14.43;8.07;;;;;;;;;;4981951;28;20430;-83
2023/05/12 06:29:22;;;;;;;15.77;9.13;;;;;;;;;;4985367;28;20445;-83
2023/05/12 06:31:47;;;;;;;13.37;8.13;;;14.20;99.90;;;;;;4984980;28;20529;-83
2023/05/12 06:34:13;;;;;;;13.70;8.10;;;14.20;99.90;;;;;;4988362;28;21046;-82
2023/05/12 06:36:39;;;;;;;16.70;8.00;;;;;;;;;;4979477;28;20198;-85
2023/05/12 06:39:05;;;;;;;14.27;8.00;;;;;;;;;;4983171;28;20199;-83
2023/05/12 06:41:32;;;;;;;10.87;6.53;;;14.60;99.90;;;;;;4987404;28;20943;-84
2023/05/12 06:44:00;;;;;;;11.13;6.70;;;;;;;;;;4988595;28;20461;-83
2023/05/12 06:46:26;;;;;;;12.07;7.60;;;14.80;99.90;;;;;;4990305;28;20927;-84
2023/05/12 06:48:54;;;;;;;12.10;6.93;;;;;;;;;;4991335;28;20433;-84
2023/05/12 06:51:19;;;;;;;10.10;6.10;;;14.90;99.90;;;;;;4985548;28;20182;-84
2023/05/12 06:53:45;;;;;;;10.33;7.00;;;14.20;99.90;;;;;;4983574;28;20473;-85
2023/05/12 06:56:15;;;;;;;12.70;7.47;;;14.20;99.90;;;;;;4973254;28;20191;-84
2023/05/12 06:58:41;;;;;;;14.27;6.73;;;14.20;99.90;;;;;;4976214;28;20210;-84
2023/05/12 07:01:07;;;;;;;12.80;7.10;;;14.20;99.90;;;;;;4983884;28;20810;-83
2023/05/12 07:03:32;;;;;;;11.10;6.60;;;14.20;99.90;;;;;;4984953;28;20466;-85
2023/05/12 07:05:58;;;;;;;11.93;6.57;;;14.20;99.90;;;;;;4986444;28;20172;-86
2023/05/12 07:08:23;;;;;;;10.50;5.90;;;14.50;99.90;;;;;;4986378;28;20628;-84
2023/05/12 07:10:49;;;;;;;8.47;5.80;;;14.70;99.90;;;;;;4991332;28;20246;-84
2023/05/12 07:13:15;;;;;;;9.40;6.57;;;;;;;;;;4990766;28;20463;-87
2023/05/12 07:15:41;;;;;;;12.20;7.10;;;14.40;99.90;;;;;;4991875;28;20175;-87
2023/05/12 07:18:06;;;;;;;8.93;6.10;;;14.60;99.90;;;;;;4992942;28;20450;-83
2023/05/12 07:20:32;;;;;;;11.07;6.93;;;14.90;99.90;;;;;;4991567;28;20287;-85
2023/05/12 07:22:57;;;;;;;9.10;6.00;;;15.00;99.90;;;;;;4992447;28;20586;-85
2023/05/12 07:25:23;;;;;;;11.30;6.85;;;15.00;99.90;;;;;;4991951;28;20439;-83
2023/05/12 07:27:49;;;;;;;6.53;5.30;;;14.90;99.90;;;;;;4993229;28;20366;-81
2023/05/12 07:30:15;;;;;;;8.70;5.90;;;14.90;99.90;;;;;;4992402;28;20167;-83
2023/05/12 07:32:41;;;;;;;8.87;5.67;;;14.80;99.90;;;;;;4992925;28;20468;-82
2023/05/12 07:35:08;;;;;;;6.73;5.07;;;15.00;99.90;;;;;;4990335;28;20422;-83
2023/05/12 07:37:34;;;;;;;7.70;4.67;;;15.20;99.90;;;;;;4991699;28;20479;-83
2023/05/12 07:39:59;;;;;;;5.37;4.30;;;15.30;99.90;;;;;;4988472;28;20493;-83
2023/05/12 07:42:25;;;;;;;8.70;5.10;;;15.50;99.90;;;;;;4988984;28;20437;-83
2023/05/12 07:44:50;;;;;;;6.77;5.27;;;15.50;99.90;;;;;;4993120;28;20179;-82
2023/05/12 07:47:16;;;;;;;6.03;4.57;;;15.50;99.90;;;;;;4997462;28;20175;-83
2023/05/12 07:49:41;;;;;;;7.20;4.70;;;15.40;99.90;;;;;;4989543;28;20541;-82
2023/05/12 07:52:07;;;;;;;6.00;4.23;;;15.10;99.90;;;;;;4988878;28;20187;-83
2023/05/12 07:54:32;;;;;;;5.20;4.00;;;15.10;99.90;;;;;;4992258;28;20231;-82
2023/05/12 07:56:58;;;;;;;4.37;3.40;;;15.00;99.90;;;;;;4996757;28;20175;-84
2023/05/12 07:59:23;;;;;;;7.33;4.87;;;15.10;99.90;;;;;;4995314;28;20199;-84
2023/05/12 08:01:49;;;;;;;4.43;3.10;;;15.20;99.90;;;;;;4996697;28;20171;-88
2023/05/12 08:04:14;;;;;;;4.50;3.30;;;15.20;99.90;;;;;;4992581;28;20203;-91
2023/05/12 08:06:40;;;;;;;4.33;3.90;;;15.10;99.90;;;;;;4985476;28;20192;-90
2023/05/12 08:09:05;;;;;;;6.23;4.00;;;15.10;99.90;;;;;;4997422;28;20488;-90
2023/05/12 08:11:31;;;;;;;7.23;4.50;;;15.20;99.90;;;;;;4983725;28;20190;-89
2023/05/12 08:13:57;;;;;;;6.63;4.90;;;15.20;99.90;;;;;;4993794;28;20291;-91
2023/05/12 08:16:22;;;;;;;9.20;6.13;;;15.40;99.90;;;;;;4994275;28;20191;-90
2023/05/12 08:18:48;;;;;;;11.93;6.00;;;15.60;99.90;;;;;;4990199;28;20210;-90
2023/05/12 08:21:14;;;;;;;9.77;6.57;;;;;;;;;;4993637;28;20190;-89
2023/05/12 08:23:39;;;;;;;8.40;6.37;;;17.00;99.90;;;;;;4980059;28;20297;-89
2023/05/12 08:26:05;;;;;;;7.47;4.97;;;17.50;99.90;;;;;;4979450;28;20435;-89
2023/05/12 08:28:31;;;;;;;7.00;5.03;;;;;;;;;;4989000;28;20341;-88
2023/05/12 08:30:57;;;;;;;6.33;4.30;;;18.80;99.90;;;;;;4979014;28;20227;-90
2023/05/12 08:33:23;;;;;;;8.43;6.53;;;18.80;99.90;;;;;;4989282;28;20457;-89
2023/05/12 08:35:49;;;;;;;4.83;3.87;;;19.20;99.90;;;;;;4987649;28;20444;-89
2023/05/12 08:38:15;;;;;;;7.03;4.40;;;19.10;99.90;;;;;;4994898;28;20537;-88
2023/05/12 08:41:01;;;;;;;8.83;4.53;;;19.10;99.90;;;;;;4990195;28;20532;-90
2023/05/12 08:43:42;;;;;;;6.73;4.77;;;19.10;99.90;;;;;;4962993;28;20455;-89
2023/05/12 08:46:08;;;;;;;6.67;5.13;;;18.40;99.90;;;;;;4989732;28;20444;-89
2023/05/12 08:48:35;;;;;;;5.03;4.03;;;17.30;99.90;;;;;;4986918;28;20521;-90
2023/05/12 08:51:01;;;;;;;7.00;5.90;;;16.50;99.90;;;;;;4986689;28;20653;-90
2023/05/12 08:53:28;;;;;;;8.20;5.83;;;16.50;99.90;;;;;;4994374;28;20456;-89
2023/05/12 08:55:55;;;;;;;6.60;5.60;;;16.00;99.90;;;;;;4988200;28;20438;-90
2023/05/12 08:58:21;;;;;;;8.40;6.10;;;15.80;99.90;;;;;;4990089;28;20474;-89
2023/05/12 09:00:47;;;;;;;7.00;5.57;;;15.00;99.90;;;;;;4985206;28;20444;-89
2023/05/12 09:03:16;;;;;;;9.03;6.10;;;14.40;99.90;;;;;;4981712;28;20282;-90
2023/05/12 09:05:42;;;;;;;8.83;6.37;;;14.00;99.90;;;;;;4982763;28;20438;-88
2023/05/12 09:08:09;;;;;;;9.90;5.40;;;13.70;99.90;;;;;;4999764;28;20672;-88
2023/05/12 09:10:35;;;;;;;11.13;7.40;;;13.60;99.90;;;;;;4998959;28;20572;-89
2023/05/12 09:13:27;;;;;;;9.07;6.67;;;13.40;99.90;;;;;;4982005;28;21013;-88
2023/05/12 09:15:55;;;;;;;9.57;5.57;;;13.40;99.90;;;;;;4986266;28;20906;-89
2023/05/12 09:18:21;;;;;;;7.75;5.05;;;13.30;99.90;;;;;;4972002;28;20514;-88
2023/05/12 09:20:47;;;;;;;7.17;5.00;;;13.30;99.90;;;;;;4971016;28;20194;-89
2023/05/12 09:23:17;;;;;;;7.23;4.60;;;13.30;99.90;;;;;;4980515;28;20474;-89
2023/05/12 09:25:44;;;;;;;5.47;4.20;;;13.60;99.90;;;;;;4974625;28;20191;-88
2023/05/12 09:28:10;;;;;;;6.07;4.50;;;13.60;99.90;;;;;;4969152;28;21240;-89
2023/05/12 09:30:37;;;;;;;5.10;3.70;;;13.80;99.90;;;;;;4982406;28;20528;-89
2023/05/12 09:33:12;;;;;;;7.17;4.83;;;14.00;99.90;;;;;;4986681;28;20460;-89
2023/05/12 09:35:43;;;;;;;5.90;4.33;;;14.50;99.90;;;;;;4973449;28;20457;-88
2023/05/12 09:38:10;;;;;;;6.13;3.40;;;14.50;99.90;;;;;;4987523;28;20547;-89
2023/05/12 09:40:36;;;;;;;5.57;3.57;;;14.70;99.90;;;;;;4983555;28;21122;-89
2023/05/12 09:43:04;;;;;;;4.60;3.43;;;14.80;99.90;;;;;;4985516;28;20532;-89
2023/05/12 09:45:37;;;;;;;5.03;3.73;;;14.80;99.90;;;;;;4978985;28;20431;-89
2023/05/12 09:48:10;;;;;;;6.20;3.90;;;15.30;99.90;;;;;;4984310;28;20513;-89
2023/05/12 09:50:47;;;;;;;5.67;3.20;;;15.80;99.90;;;;;;4981033;28;20438;-89
2023/05/12 09:53:13;;;;;;;5.30;3.70;;;16.50;99.90;;;;;;4978476;28;21148;-90
2023/05/12 09:55:41;;;;;;;3.90;3.30;;;16.70;99.90;;;;;;4977794;28;20442;-89
2023/05/12 09:58:09;;;;;;;4.20;3.30;;;17.60;99.90;;;;;;4975566;28;20454;-90
2023/05/12 10:00:38;;;;;;;4.03;3.50;;;18.30;99.90;;;;;;4975866;28;20807;-89
2023/05/12 10:03:10;;;;;;;3.17;2.40;;;18.30;99.90;;;;;;4978577;28;20993;-89
2023/05/12 10:05:42;;;;;;;3.20;2.40;;;19.30;99.90;;;;;;4990808;28;20434;-89
2023/05/12 10:08:08;;;;;;;2.40;2.20;;;;;;;;;;4983083;28;20441;-89
2023/05/12 10:10:35;;;;;;;3.90;3.37;;;;;;;;;;4984999;28;20434;-90
2023/05/12 10:13:01;;;;;;;2.70;2.10;;;;;;;;;;4973577;28;20636;-89
2023/05/12 10:15:27;;;;;;;3.07;2.70;;;;;;;;;;4978097;28;20693;-90
2023/05/12 10:17:56;;;;;;;2.30;2.10;;;;;;;;;;4984011;28;20644;-89
2023/05/12 10:20:23;;;;;;;2.60;2.40;;;20.20;99.90;;;;;;4976667;28;21064;-90
2023/05/12 10:22:49;;;;;;;3.83;2.30;;;;;;;;;;4985779;28;21565;-90
2023/05/12 10:25:16;;;;;;;4.17;2.83;;;18.90;99.90;;;;;;4973181;28;20861;-90
2023/05/12 10:27:42;;;;;;;4.57;3.67;;;18.80;99.90;;;;;;4985106;28;20954;-89
2023/05/12 10:30:09;;;;;;;5.33;3.43;;;18.60;99.90;;;;;;4988211;28;20449;-90
2023/05/12 10:32:35;;;;;;;4.10;3.17;;;18.20;99.90;;;;;;4974697;28;20553;-90
2023/05/12 10:35:09;;;;;;;5.07;3.40;;;17.90;99.90;;;;;;4979726;28;20594;-89
2023/05/12 10:37:36;;;;;;;3.90;3.23;;;;;;;;;;4970905;28;21044;-88
2023/05/12 10:40:03;;;;;;;5.33;2.90;;;16.70;99.90;;;;;;4974287;28;20822;-83
2023/05/12 10:42:40;;;;;;;5.20;3.63;;;16.30;99.90;;;;;;4987262;28;20943;-83
2023/05/12 10:45:16;;;;;;;4.83;3.27;;;16.20;99.90;;;;;;4988963;28;20441;-83
2023/05/12 10:47:42;;;;;;;5.60;4.57;;;16.10;99.90;;;;;;4982510;28;20845;-83
2023/05/12 10:50:08;;;;;;;4.87;3.97;;;16.10;99.90;;;;;;4984260;28;20500;-83
2023/05/12 10:52:33;;;;;;;6.60;4.60;;;16.00;99.90;;;;;;4981798;28;20469;-82
2023/05/12 10:55:03;;;;;;;5.50;3.97;;;16.20;99.90;;;;;;4985339;28;20443;-83
2023/05/12 10:57:30;;;;;;;7.50;4.63;;;16.60;99.90;;;;;;4982300;28;20215;-87
2023/05/12 10:59:57;;;;;;;5.40;3.40;;;16.90;99.90;;;;;;4977584;28;20458;-87
2023/05/12 11:02:31;;;;;;;4.27;3.70;;;17.50;99.90;;;;;;4977588;28;20503;-87
2023/05/12 11:05:03;;;;;;;3.03;2.47;;;17.60;99.90;;;;;;4977117;28;20422;-87
2023/05/12 11:07:30;;;;;;;6.10;2.73;;;18.60;99.90;;;;;;4976944;28;20443;-86
2023/05/12 11:09:58;;;;;;;5.87;3.30;;;19.40;99.90;;;;;;4977269;28;20495;-86
2023/05/12 11:12:26;;;;;;;6.63;3.90;;;19.40;99.90;;;;;;4976712;28;20423;-86
2023/05/12 11:14:52;;;;;;;7.90;3.77;;;;;;;;;;4982636;28;20401;-87
2023/05/12 11:17:18;;;;;;;5.17;3.80;;;;;;;;;;4982135;28;20446;-86
2023/05/12 11:19:49;;;;;;;5.57;4.33;;;19.20;99.90;;;;;;4979490;28;20470;-87
2023/05/12 11:22:19;;;;;;;5.33;3.40;;;19.10;99.90;;;;;;4980620;28;20423;-86
2023/05/12 11:24:45;;;;;;;4.10;3.00;;;19.10;99.90;;;;;;4980684;28;20558;-86
2023/05/12 11:27:12;;;;;;;4.27;3.37;;;19.10;99.90;;;;;;4979400;28;20419;-87
2023/05/12 11:29:40;;;;;;;7.60;5.07;;;;;;;;;;4982823;28;20415;-86
2023/05/12 11:32:06;;;;;;;13.67;7.47;;;;;;;;;;4984270;28;20411;-86
2023/05/12 11:34:32;;;;;;;5.50;4.00;;;;;;;;;;4983286;28;20490;-87
2023/05/12 11:36:58;;;;;;;4.57;4.07;;;;;;;;;;4982834;28;20423;-87
2023/05/12 11:39:31;;;;;;;4.70;3.33;;;18.30;99.90;;;;;;4982917;28;20518;-86
2023/05/12 11:42:04;;;;;;;3.90;3.20;;;17.50;99.90;;;;;;4982596;28;20419;-86
2023/05/12 11:44:31;;;;;;;3.77;3.17;;;17.40;99.90;;;;;;4984167;28;20817;-86
2023/05/12 11:46:59;;;;;;;4.07;3.40;;;17.10;99.90;;;;;;4982237;28;20431;-86
2023/05/12 11:49:25;;;;;;;4.77;3.50;;;16.80;99.90;;;;;;4983013;28;20411;-86
2023/05/12 11:51:53;;;;;;;5.23;3.20;;;16.60;99.90;;;;;;4984952;28;20530;-86
2023/05/12 11:54:19;;;;;;;4.73;4.07;;;;;;;;;;4983927;28;20471;-86
2023/05/12 11:56:52;;;;;;;5.07;4.03;;;16.40;99.90;;;;;;4983534;28;20419;-86
2023/05/12 11:59:28;;;;;;;4.43;3.30;;;16.50;99.90;;;;;;4982987;28;20467;-86
2023/05/12 12:01:55;;;;;;;4.37;3.37;;;;;;;;;;4982499;28;20426;-86
2023/05/12 12:04:31;;;;;;;7.00;4.63;;;16.60;99.90;;;;;;4984476;28;20423;-86
2023/05/12 12:06:57;;;;;;;5.73;4.00;;;16.80;99.90;;;;;;4983396;28;20423;-86
2023/05/12 12:09:33;;;;;;;5.17;3.67;;;17.00;99.90;;;;;;4983391;28;20426;-87
2023/05/12 12:12:00;;;;;;;6.37;4.30;;;17.10;99.90;;;;;;4983989;28;20222;-86
2023/05/12 12:14:26;;;;;;;6.53;3.73;;;17.20;99.90;;;;;;4983294;28;20474;-86
2023/05/12 12:16:52;;;;;;;5.10;4.00;;;17.20;99.90;;;;;;4982564;28;20419;-87
2023/05/12 12:19:17;;;;;;;8.63;5.43;;;17.20;99.90;;;;;;4982165;28;20207;-86
2023/05/12 12:21:43;;;;;;;6.57;4.73;;;;;;;;;;4982596;28;20224;-85
2023/05/12 12:24:09;;;;;;;6.07;4.70;;;;;;;;;;4981285;28;20207;-86
2023/05/12 12:26:35;;;;;;;6.67;4.20;;;;;;;;;;4983329;28;20419;-86
2023/05/12 12:29:01;;;;;;;4.83;4.13;;;;;;;;;;4983273;28;20429;-86
2023/05/12 12:31:28;;;;;;;6.80;4.63;;;17.60;99.90;;;;;;4983053;28;20419;-87
2023/05/12 12:33:54;;;;;;;5.03;4.10;;;;;;;;;;4984885;28;20466;-86
2023/05/12 12:36:20;;;;;;;5.80;4.13;;;;;;;;;;5000543;28;20414;-86
2023/05/12 12:38:46;;;;;;;6.60;4.60;;;;;;;;;;5001831;28;20529;-86
2023/05/12 12:41:12;;;;;;;5.33;4.00;;;16.90;99.90;;;;;;5002173;28;20425;-86
2023/05/12 12:43:38;;;;;;;8.60;4.70;;;;;;;;;;5003607;28;20441;-86
2023/05/12 12:46:04;;;;;;;5.10;3.87;;;;;;;;;;5003218;28;20478;-87
2023/05/12 12:48:31;;;;;;;6.43;4.20;;;;;;;;;;5003551;28;20417;-86
2023/05/12 12:50:57;;;;;;;8.70;5.13;;;;;;;;;;5004487;28;20403;-86
2023/05/12 12:53:22;;;;;;;6.57;4.50;;;16.70;99.90;;;;;;5004388;28;20916;-86
2023/05/12 12:55:48;;;;;;;6.00;4.00;;;16.30;99.90;;;;;;5005302;28;20468;-86
2023/05/12 12:58:14;;;;;;;5.60;5.10;;;15.70;99.90;;;;;;5004134;28;20199;-86
2023/05/12 13:00:39;;;;;;;9.10;5.60;;;15.40;99.90;;;;;;5002592;28;20242;-85
2023/05/12 13:03:06;;;;;;;7.30;5.00;;;;;;;;;;5004598;28;20195;-85